sensor_id;sensor_type;location;lat;lon;timestamp;P1;durP1;ratioP1;P2;durP2;ratioP2
13244;SDS011;6689;53.400;12.486;2023-03-01T00:02:23;4.72;;;2.30;;
13244;SDS011;6689;53.400;12.486;2023-03-01T00:04:53;2.50;;;1.40;;
13244;SDS011;6689;53.400;12.486;2023-03-01T00:07:20;3.78;;;2.08;;
13244;SDS011;6689;53.400;12.486;2023-03-01T00:09:48;3.38;;;2.17;;
13244;SDS011;6689;53.400;12.486;2023-03-01T00:12:19;5.00;;;2.10;;
13244;SDS011;6689;53.400;12.486;2023-03-01T00:14:46;2.55;;;1.70;;
13244;SDS011;6689;53.400;12.486;2023-03-01T00:17:14;2.85;;;1.67;;
13244;SDS011;6689;53.400;12.486;2023-03-01T00:19:45;3.92;;;1.67;;
13244;SDS011;6689;53.400;12.486;2023-03-01T00:22:12;2.28;;;1.40;;
13244;SDS011;6689;53.400;12.486;2023-03-01T00:24:39;3.38;;;1.60;;
13244;SDS011;6689;53.400;12.486;2023-03-01T00:27:07;4.32;;;1.77;;
13244;SDS011;6689;53.400;12.486;2023-03-01T00:29:34;6.55;;;2.20;;
13244;SDS011;6689;53.400;12.486;2023-03-01T00:32:01;5.10;;;1.88;;
13244;SDS011;6689;53.400;12.486;2023-03-01T00:34:29;4.72;;;2.85;;
13244;SDS011;6689;53.400;12.486;2023-03-01T00:36:57;5.10;;;2.30;;
13244;SDS011;6689;53.400;12.486;2023-03-01T00:39:30;3.65;;;1.90;;
13244;SDS011;6689;53.400;12.486;2023-03-01T00:41:58;3.53;;;1.67;;
13244;SDS011;6689;53.400;12.486;2023-03-01T00:44:26;6.88;;;2.13;;
13244;SDS011;6689;53.400;12.486;2023-03-01T00:46:53;3.35;;;1.70;;
13244;SDS011;6689;53.400;12.486;2023-03-01T00:49:21;3.72;;;2.13;;
13244;SDS011;6689;53.400;12.486;2023-03-01T00:51:49;5.38;;;2.58;;
13244;SDS011;6689;53.400;12.486;2023-03-01T00:54:18;3.67;;;1.92;;
13244;SDS011;6689;53.400;12.486;2023-03-01T00:56:45;4.35;;;2.25;;
13244;SDS011;6689;53.400;12.486;2023-03-01T00:59:13;3.58;;;2.03;;
13244;SDS011;6689;53.400;12.486;2023-03-01T01:01:41;3.65;;;1.67;;
13244;SDS011;6689;53.400;12.486;2023-03-01T01:04:09;3.45;;;1.80;;
13244;SDS011;6689;53.400;12.486;2023-03-01T01:06:38;2.97;;;1.83;;
13244;SDS011;6689;53.400;12.486;2023-03-01T01:09:08;2.72;;;1.52;;
13244;SDS011;6689;53.400;12.486;2023-03-01T01:11:43;3.42;;;1.63;;
13244;SDS011;6689;53.400;12.486;2023-03-01T01:14:11;4.05;;;2.05;;
13244;SDS011;6689;53.400;12.486;2023-03-01T01:16:38;3.67;;;2.35;;
13244;SDS011;6689;53.400;12.486;2023-03-01T01:19:06;3.83;;;2.03;;
13244;SDS011;6689;53.400;12.486;2023-03-01T01:21:33;4.40;;;2.17;;
13244;SDS011;6689;53.400;12.486;2023-03-01T01:24:02;3.13;;;2.10;;
13244;SDS011;6689;53.400;12.486;2023-03-01T01:26:30;5.28;;;2.17;;
13244;SDS011;6689;53.400;12.486;2023-03-01T01:29:00;3.95;;;2.30;;
13244;SDS011;6689;53.400;12.486;2023-03-01T01:31:29;4.43;;;2.35;;
13244;SDS011;6689;53.400;12.486;2023-03-01T01:33:57;5.80;;;2.20;;
13244;SDS011;6689;53.400;12.486;2023-03-01T01:36:25;4.53;;;1.98;;
13244;SDS011;6689;53.400;12.486;2023-03-01T01:38:53;4.38;;;2.55;;
13244;SDS011;6689;53.400;12.486;2023-03-01T01:41:20;3.47;;;2.08;;
13244;SDS011;6689;53.400;12.486;2023-03-01T01:43:49;3.35;;;2.30;;
13244;SDS011;6689;53.400;12.486;2023-03-01T01:46:38;3.90;;;2.85;;
13244;SDS011;6689;53.400;12.486;2023-03-01T01:49:09;4.82;;;2.30;;
13244;SDS011;6689;53.400;12.486;2023-03-01T01:51:44;12.75;;;3.90;;
13244;SDS011;6689;53.400;12.486;2023-03-01T01:54:16;2.85;;;1.95;;
13244;SDS011;6689;53.400;12.486;2023-03-01T01:56:48;8.30;;;3.47;;
13244;SDS011;6689;53.400;12.486;2023-03-01T01:59:19;3.20;;;2.15;;
13244;SDS011;6689;53.400;12.486;2023-03-01T02:01:51;3.50;;;2.22;;
13244;SDS011;6689;53.400;12.486;2023-03-01T02:04:19;4.00;;;2.10;;
13244;SDS011;6689;53.400;12.486;2023-03-01T02:06:48;6.35;;;2.15;;
13244;SDS011;6689;53.400;12.486;2023-03-01T02:09:18;3.95;;;2.65;;
13244;SDS011;6689;53.400;12.486;2023-03-01T02:11:46;4.90;;;2.42;;
13244;SDS011;6689;53.400;12.486;2023-03-01T02:14:15;6.63;;;2.20;;
13244;SDS011;6689;53.400;12.486;2023-03-01T02:16:43;6.47;;;2.20;;
13244;SDS011;6689;53.400;12.486;2023-03-01T02:19:15;5.30;;;1.90;;
13244;SDS011;6689;53.400;12.486;2023-03-01T02:21:53;3.03;;;2.20;;
13244;SDS011;6689;53.400;12.486;2023-03-01T02:24:27;3.53;;;2.05;;
13244;SDS011;6689;53.400;12.486;2023-03-01T02:27:00;6.35;;;2.38;;
13244;SDS011;6689;53.400;12.486;2023-03-01T02:29:29;5.35;;;2.40;;
13244;SDS011;6689;53.400;12.486;2023-03-01T02:31:56;3.05;;;2.10;;
13244;SDS011;6689;53.400;12.486;2023-03-01T02:34:27;6.25;;;2.00;;
13244;SDS011;6689;53.400;12.486;2023-03-01T02:36:56;5.05;;;2.65;;
13244;SDS011;6689;53.400;12.486;2023-03-01T02:39:30;5.40;;;3.10;;
13244;SDS011;6689;53.400;12.486;2023-03-01T02:42:00;5.15;;;2.22;;
13244;SDS011;6689;53.400;12.486;2023-03-01T02:44:31;6.57;;;2.60;;
13244;SDS011;6689;53.400;12.486;2023-03-01T02:46:59;3.80;;;2.72;;
13244;SDS011;6689;53.400;12.486;2023-03-01T02:49:32;4.50;;;2.78;;
13244;SDS011;6689;53.400;12.486;2023-03-01T02:54:55;4.15;;;2.65;;
13244;SDS011;6689;53.400;12.486;2023-03-01T02:57:27;4.68;;;2.92;;
13244;SDS011;6689;53.400;12.486;2023-03-01T02:59:59;6.72;;;2.30;;
13244;SDS011;6689;53.400;12.486;2023-03-01T03:02:32;6.68;;;3.30;;
13244;SDS011;6689;53.400;12.486;2023-03-01T03:05:06;5.88;;;3.25;;
13244;SDS011;6689;53.400;12.486;2023-03-01T03:07:36;8.07;;;4.05;;
13244;SDS011;6689;53.400;12.486;2023-03-01T03:10:06;6.82;;;3.35;;
13244;SDS011;6689;53.400;12.486;2023-03-01T03:12:36;4.82;;;3.00;;
13244;SDS011;6689;53.400;12.486;2023-03-01T03:15:06;4.75;;;2.97;;
13244;SDS011;6689;53.400;12.486;2023-03-01T03:17:35;5.15;;;2.63;;
13244;SDS011;6689;53.400;12.486;2023-03-01T03:20:03;7.93;;;3.08;;
13244;SDS011;6689;53.400;12.486;2023-03-01T03:22:36;4.68;;;2.50;;
13244;SDS011;6689;53.400;12.486;2023-03-01T03:25:04;5.10;;;2.70;;
13244;SDS011;6689;53.400;12.486;2023-03-01T03:27:35;5.45;;;3.05;;
13244;SDS011;6689;53.400;12.486;2023-03-01T03:30:03;7.55;;;4.10;;
13244;SDS011;6689;53.400;12.486;2023-03-01T03:32:34;6.53;;;3.50;;
13244;SDS011;6689;53.400;12.486;2023-03-01T03:35:01;7.63;;;3.00;;
13244;SDS011;6689;53.400;12.486;2023-03-01T03:37:34;6.53;;;3.28;;
13244;SDS011;6689;53.400;12.486;2023-03-01T03:40:19;6.10;;;2.67;;
13244;SDS011;6689;53.400;12.486;2023-03-01T03:42:48;5.28;;;2.83;;
13244;SDS011;6689;53.400;12.486;2023-03-01T03:45:16;5.90;;;2.50;;
13244;SDS011;6689;53.400;12.486;2023-03-01T03:47:44;4.32;;;2.50;;
13244;SDS011;6689;53.400;12.486;2023-03-01T03:50:12;5.32;;;2.70;;
13244;SDS011;6689;53.400;12.486;2023-03-01T03:52:41;6.80;;;3.08;;
13244;SDS011;6689;53.400;12.486;2023-03-01T03:55:09;5.07;;;2.30;;
13244;SDS011;6689;53.400;12.486;2023-03-01T03:57:40;7.00;;;2.35;;
13244;SDS011;6689;53.400;12.486;2023-03-01T04:00:09;5.47;;;2.38;;
13244;SDS011;6689;53.400;12.486;2023-03-01T04:02:40;5.93;;;2.50;;
13244;SDS011;6689;53.400;12.486;2023-03-01T04:05:08;4.15;;;2.22;;
13244;SDS011;6689;53.400;12.486;2023-03-01T04:07:37;4.38;;;2.70;;
13244;SDS011;6689;53.400;12.486;2023-03-01T04:10:05;4.70;;;2.45;;
13244;SDS011;6689;53.400;12.486;2023-03-01T04:12:35;5.45;;;2.28;;
13244;SDS011;6689;53.400;12.486;2023-03-01T04:15:03;4.68;;;2.45;;
13244;SDS011;6689;53.400;12.486;2023-03-01T04:17:39;5.38;;;2.70;;
13244;SDS011;6689;53.400;12.486;2023-03-01T04:20:07;5.07;;;2.80;;
13244;SDS011;6689;53.400;12.486;2023-03-01T04:22:36;4.90;;;2.67;;
13244;SDS011;6689;53.400;12.486;2023-03-01T04:25:04;3.80;;;2.10;;
13244;SDS011;6689;53.400;12.486;2023-03-01T04:27:32;5.18;;;2.20;;
13244;SDS011;6689;53.400;12.486;2023-03-01T04:30:00;4.53;;;2.17;;
13244;SDS011;6689;53.400;12.486;2023-03-01T04:32:27;8.35;;;2.20;;
13244;SDS011;6689;53.400;12.486;2023-03-01T04:34:56;5.43;;;2.85;;
13244;SDS011;6689;53.400;12.486;2023-03-01T04:37:24;8.63;;;2.53;;
13244;SDS011;6689;53.400;12.486;2023-03-01T04:39:51;4.15;;;2.53;;
13244;SDS011;6689;53.400;12.486;2023-03-01T04:42:19;5.43;;;2.50;;
13244;SDS011;6689;53.400;12.486;2023-03-01T04:44:46;6.30;;;2.53;;
13244;SDS011;6689;53.400;12.486;2023-03-01T04:47:16;3.90;;;2.25;;
13244;SDS011;6689;53.400;12.486;2023-03-01T04:49:43;4.38;;;2.10;;
13244;SDS011;6689;53.400;12.486;2023-03-01T04:52:12;5.15;;;2.65;;
13244;SDS011;6689;53.400;12.486;2023-03-01T04:54:39;4.07;;;2.25;;
13244;SDS011;6689;53.400;12.486;2023-03-01T04:57:07;5.25;;;2.20;;
13244;SDS011;6689;53.400;12.486;2023-03-01T04:59:34;5.70;;;2.38;;
13244;SDS011;6689;53.400;12.486;2023-03-01T05:02:02;3.80;;;2.10;;
13244;SDS011;6689;53.400;12.486;2023-03-01T05:04:30;4.38;;;2.20;;
13244;SDS011;6689;53.400;12.486;2023-03-01T05:06:57;4.55;;;2.53;;
13244;SDS011;6689;53.400;12.486;2023-03-01T05:09:26;6.57;;;3.10;;
13244;SDS011;6689;53.400;12.486;2023-03-01T05:11:54;6.53;;;3.17;;
13244;SDS011;6689;53.400;12.486;2023-03-01T05:14:21;5.15;;;2.72;;
13244;SDS011;6689;53.400;12.486;2023-03-01T05:16:48;5.00;;;3.00;;
13244;SDS011;6689;53.400;12.486;2023-03-01T05:19:15;5.68;;;3.22;;
13244;SDS011;6689;53.400;12.486;2023-03-01T05:21:47;6.60;;;3.60;;
13244;SDS011;6689;53.400;12.486;2023-03-01T05:24:32;7.35;;;4.03;;
13244;SDS011;6689;53.400;12.486;2023-03-01T05:27:00;6.63;;;4.45;;
13244;SDS011;6689;53.400;12.486;2023-03-01T05:29:28;7.32;;;4.78;;
13244;SDS011;6689;53.400;12.486;2023-03-01T05:32:00;9.23;;;4.00;;
13244;SDS011;6689;53.400;12.486;2023-03-01T05:34:29;6.50;;;4.25;;
13244;SDS011;6689;53.400;12.486;2023-03-01T05:36:58;8.23;;;3.80;;
13244;SDS011;6689;53.400;12.486;2023-03-01T05:39:26;9.55;;;4.90;;
13244;SDS011;6689;53.400;12.486;2023-03-01T05:41:58;9.05;;;5.18;;
13244;SDS011;6689;53.400;12.486;2023-03-01T05:44:27;7.97;;;4.63;;
13244;SDS011;6689;53.400;12.486;2023-03-01T05:46:55;7.65;;;4.03;;
13244;SDS011;6689;53.400;12.486;2023-03-01T05:49:23;8.80;;;4.78;;
13244;SDS011;6689;53.400;12.486;2023-03-01T05:51:55;8.82;;;6.30;;
13244;SDS011;6689;53.400;12.486;2023-03-01T05:54:22;9.07;;;4.72;;
13244;SDS011;6689;53.400;12.486;2023-03-01T05:56:49;9.18;;;5.05;;
13244;SDS011;6689;53.400;12.486;2023-03-01T05:59:18;10.05;;;4.57;;
13244;SDS011;6689;53.400;12.486;2023-03-01T06:01:45;7.18;;;4.47;;
13244;SDS011;6689;53.400;12.486;2023-03-01T06:04:12;6.95;;;4.45;;
13244;SDS011;6689;53.400;12.486;2023-03-01T06:06:40;7.28;;;3.97;;
13244;SDS011;6689;53.400;12.486;2023-03-01T06:09:07;9.15;;;4.32;;
13244;SDS011;6689;53.400;12.486;2023-03-01T06:11:35;9.32;;;4.97;;
13244;SDS011;6689;53.400;12.486;2023-03-01T06:14:04;8.13;;;4.82;;
13244;SDS011;6689;53.400;12.486;2023-03-01T06:16:34;8.27;;;4.90;;
13244;SDS011;6689;53.400;12.486;2023-03-01T06:19:01;10.77;;;4.68;;
13244;SDS011;6689;53.400;12.486;2023-03-01T06:21:28;6.80;;;4.15;;
13244;SDS011;6689;53.400;12.486;2023-03-01T06:23:55;7.10;;;4.30;;
13244;SDS011;6689;53.400;12.486;2023-03-01T06:26:23;8.52;;;4.82;;
13244;SDS011;6689;53.400;12.486;2023-03-01T06:28:50;8.77;;;5.47;;
13244;SDS011;6689;53.400;12.486;2023-03-01T06:31:18;9.13;;;5.85;;
13244;SDS011;6689;53.400;12.486;2023-03-01T06:33:46;9.82;;;5.18;;
13244;SDS011;6689;53.400;12.486;2023-03-01T06:36:13;7.80;;;4.80;;
13244;SDS011;6689;53.400;12.486;2023-03-01T06:38:43;7.95;;;5.45;;
13244;SDS011;6689;53.400;12.486;2023-03-01T06:41:11;8.98;;;4.97;;
13244;SDS011;6689;53.400;12.486;2023-03-01T06:43:38;8.45;;;4.70;;
13244;SDS011;6689;53.400;12.486;2023-03-01T06:46:05;9.60;;;4.63;;
13244;SDS011;6689;53.400;12.486;2023-03-01T06:48:33;11.98;;;5.65;;
13244;SDS011;6689;53.400;12.486;2023-03-01T06:51:05;9.32;;;4.80;;
13244;SDS011;6689;53.400;12.486;2023-03-01T06:53:32;7.65;;;4.55;;
13244;SDS011;6689;53.400;12.486;2023-03-01T06:56:00;9.40;;;5.18;;
13244;SDS011;6689;53.400;12.486;2023-03-01T06:58:27;9.20;;;4.45;;
13244;SDS011;6689;53.400;12.486;2023-03-01T07:00:55;10.00;;;4.53;;
13244;SDS011;6689;53.400;12.486;2023-03-01T07:03:22;9.90;;;5.70;;
13244;SDS011;6689;53.400;12.486;2023-03-01T07:05:50;10.90;;;5.75;;
13244;SDS011;6689;53.400;12.486;2023-03-01T07:08:19;7.15;;;4.97;;
13244;SDS011;6689;53.400;12.486;2023-03-01T07:10:46;10.88;;;5.57;;
13244;SDS011;6689;53.400;12.486;2023-03-01T07:13:14;9.25;;;5.53;;
13244;SDS011;6689;53.400;12.486;2023-03-01T07:15:41;9.50;;;6.20;;
13244;SDS011;6689;53.400;12.486;2023-03-01T07:18:11;9.93;;;5.55;;
13244;SDS011;6689;53.400;12.486;2023-03-01T07:20:39;11.20;;;5.40;;
13244;SDS011;6689;53.400;12.486;2023-03-01T07:23:06;9.10;;;6.10;;
13244;SDS011;6689;53.400;12.486;2023-03-01T07:25:35;10.85;;;6.10;;
13244;SDS011;6689;53.400;12.486;2023-03-01T07:28:02;14.23;;;7.63;;
13244;SDS011;6689;53.400;12.486;2023-03-01T07:30:30;12.73;;;7.43;;
13244;SDS011;6689;53.400;12.486;2023-03-01T07:32:58;13.25;;;7.70;;
13244;SDS011;6689;53.400;12.486;2023-03-01T07:35:25;18.95;;;8.38;;
13244;SDS011;6689;53.400;12.486;2023-03-01T07:37:53;15.10;;;8.57;;
13244;SDS011;6689;53.400;12.486;2023-03-01T07:40:21;13.02;;;6.93;;
13244;SDS011;6689;53.400;12.486;2023-03-01T07:42:50;13.68;;;8.23;;
13244;SDS011;6689;53.400;12.486;2023-03-01T07:45:22;12.93;;;8.00;;
13244;SDS011;6689;53.400;12.486;2023-03-01T07:47:50;14.38;;;6.93;;
13244;SDS011;6689;53.400;12.486;2023-03-01T07:50:18;12.23;;;6.78;;
13244;SDS011;6689;53.400;12.486;2023-03-01T07:52:45;11.10;;;7.03;;
13244;SDS011;6689;53.400;12.486;2023-03-01T07:55:13;9.55;;;6.20;;
13244;SDS011;6689;53.400;12.486;2023-03-01T07:57:42;10.35;;;6.28;;
13244;SDS011;6689;53.400;12.486;2023-03-01T08:00:12;8.73;;;5.20;;
13244;SDS011;6689;53.400;12.486;2023-03-01T08:02:40;11.43;;;5.03;;
13244;SDS011;6689;53.400;12.486;2023-03-01T08:05:07;7.38;;;4.78;;
13244;SDS011;6689;53.400;12.486;2023-03-01T08:07:35;5.93;;;3.67;;
13244;SDS011;6689;53.400;12.486;2023-03-01T08:10:03;6.90;;;4.55;;
13244;SDS011;6689;53.400;12.486;2023-03-01T08:12:31;6.00;;;4.32;;
13244;SDS011;6689;53.400;12.486;2023-03-01T08:15:00;6.82;;;4.50;;
13244;SDS011;6689;53.400;12.486;2023-03-01T08:17:28;6.43;;;3.97;;
13244;SDS011;6689;53.400;12.486;2023-03-01T08:19:55;7.18;;;4.57;;
13244;SDS011;6689;53.400;12.486;2023-03-01T08:22:23;6.65;;;4.80;;
13244;SDS011;6689;53.400;12.486;2023-03-01T08:24:50;7.93;;;4.32;;
13244;SDS011;6689;53.400;12.486;2023-03-01T08:27:17;6.88;;;3.83;;
13244;SDS011;6689;53.400;12.486;2023-03-01T08:29:44;4.18;;;3.35;;
13244;SDS011;6689;53.400;12.486;2023-03-01T08:32:12;4.82;;;3.15;;
13244;SDS011;6689;53.400;12.486;2023-03-01T08:34:41;4.75;;;3.00;;
13244;SDS011;6689;53.400;12.486;2023-03-01T08:37:08;6.53;;;3.45;;
13244;SDS011;6689;53.400;12.486;2023-03-01T08:39:36;4.28;;;3.58;;
13244;SDS011;6689;53.400;12.486;2023-03-01T08:42:03;10.20;;;3.67;;
13244;SDS011;6689;53.400;12.486;2023-03-01T08:44:32;9.65;;;3.63;;
13244;SDS011;6689;53.400;12.486;2023-03-01T08:47:00;5.38;;;3.38;;
13244;SDS011;6689;53.400;12.486;2023-03-01T08:49:28;6.68;;;3.75;;
13244;SDS011;6689;53.400;12.486;2023-03-01T08:51:59;6.25;;;4.05;;
13244;SDS011;6689;53.400;12.486;2023-03-01T08:54:28;7.30;;;4.40;;
13244;SDS011;6689;53.400;12.486;2023-03-01T08:56:55;9.98;;;5.95;;
13244;SDS011;6689;53.400;12.486;2023-03-01T08:59:24;8.90;;;5.82;;
13244;SDS011;6689;53.400;12.486;2023-03-01T09:01:54;7.60;;;5.50;;
13244;SDS011;6689;53.400;12.486;2023-03-01T09:04:22;6.40;;;5.03;;
13244;SDS011;6689;53.400;12.486;2023-03-01T09:06:50;7.00;;;5.00;;
13244;SDS011;6689;53.400;12.486;2023-03-01T09:09:18;8.95;;;5.40;;
13244;SDS011;6689;53.400;12.486;2023-03-01T09:11:47;8.80;;;5.50;;
13244;SDS011;6689;53.400;12.486;2023-03-01T09:14:18;6.82;;;4.32;;
13244;SDS011;6689;53.400;12.486;2023-03-01T09:16:45;5.95;;;4.07;;
13244;SDS011;6689;53.400;12.486;2023-03-01T09:19:12;6.35;;;3.80;;
13244;SDS011;6689;53.400;12.486;2023-03-01T09:21:40;7.97;;;4.32;;
13244;SDS011;6689;53.400;12.486;2023-03-01T09:24:20;6.28;;;4.75;;
13244;SDS011;6689;53.400;12.486;2023-03-01T09:26:49;7.68;;;4.10;;
13244;SDS011;6689;53.400;12.486;2023-03-01T09:29:19;5.65;;;3.72;;
13244;SDS011;6689;53.400;12.486;2023-03-01T09:31:46;7.35;;;4.20;;
13244;SDS011;6689;53.400;12.486;2023-03-01T09:34:13;5.97;;;3.80;;
13244;SDS011;6689;53.400;12.486;2023-03-01T09:36:44;6.68;;;3.88;;
13244;SDS011;6689;53.400;12.486;2023-03-01T09:39:11;9.13;;;4.70;;
13244;SDS011;6689;53.400;12.486;2023-03-01T09:41:47;6.88;;;4.18;;
13244;SDS011;6689;53.400;12.486;2023-03-01T09:44:30;8.30;;;3.92;;
13244;SDS011;6689;53.400;12.486;2023-03-01T09:47:01;9.90;;;4.28;;
13244;SDS011;6689;53.400;12.486;2023-03-01T09:49:29;7.05;;;3.85;;
13244;SDS011;6689;53.400;12.486;2023-03-01T09:51:59;6.10;;;3.75;;
13244;SDS011;6689;53.400;12.486;2023-03-01T09:54:33;6.40;;;3.77;;
13244;SDS011;6689;53.400;12.486;2023-03-01T09:57:11;8.88;;;4.07;;
13244;SDS011;6689;53.400;12.486;2023-03-01T09:59:55;6.75;;;4.18;;
13244;SDS011;6689;53.400;12.486;2023-03-01T10:02:32;6.47;;;4.10;;
13244;SDS011;6689;53.400;12.486;2023-03-01T10:07:42;8.82;;;4.32;;
13244;SDS011;6689;53.400;12.486;2023-03-01T10:12:49;7.85;;;4.82;;
13244;SDS011;6689;53.400;12.486;2023-03-01T10:15:18;7.50;;;4.82;;
13244;SDS011;6689;53.400;12.486;2023-03-01T10:17:52;6.60;;;4.70;;
13244;SDS011;6689;53.400;12.486;2023-03-01T10:20:23;8.68;;;5.40;;
13244;SDS011;6689;53.400;12.486;2023-03-01T10:22:51;8.32;;;5.05;;
13244;SDS011;6689;53.400;12.486;2023-03-01T10:25:24;9.88;;;4.53;;
13244;SDS011;6689;53.400;12.486;2023-03-01T10:28:15;8.60;;;5.18;;
13244;SDS011;6689;53.400;12.486;2023-03-01T10:30:44;9.57;;;6.43;;
13244;SDS011;6689;53.400;12.486;2023-03-01T10:33:14;10.18;;;6.55;;
13244;SDS011;6689;53.400;12.486;2023-03-01T10:35:46;9.35;;;6.03;;
13244;SDS011;6689;53.400;12.486;2023-03-01T10:38:15;9.10;;;6.22;;
13244;SDS011;6689;53.400;12.486;2023-03-01T10:40:53;8.50;;;5.50;;
13244;SDS011;6689;53.400;12.486;2023-03-01T10:43:24;10.02;;;6.93;;
13244;SDS011;6689;53.400;12.486;2023-03-01T10:45:54;10.18;;;6.82;;
13244;SDS011;6689;53.400;12.486;2023-03-01T10:48:22;7.47;;;6.13;;
13244;SDS011;6689;53.400;12.486;2023-03-01T10:51:04;10.35;;;7.57;;
13244;SDS011;6689;53.400;12.486;2023-03-01T10:53:33;8.77;;;6.72;;
13244;SDS011;6689;53.400;12.486;2023-03-01T10:56:03;9.70;;;6.55;;
13244;SDS011;6689;53.400;12.486;2023-03-01T10:58:34;11.43;;;6.82;;
13244;SDS011;6689;53.400;12.486;2023-03-01T11:01:03;9.57;;;6.25;;
13244;SDS011;6689;53.400;12.486;2023-03-01T11:03:32;14.95;;;6.78;;
13244;SDS011;6689;53.400;12.486;2023-03-01T11:06:02;9.68;;;7.10;;
13244;SDS011;6689;53.400;12.486;2023-03-01T11:08:33;10.80;;;7.57;;
13244;SDS011;6689;53.400;12.486;2023-03-01T11:11:07;9.77;;;6.65;;
13244;SDS011;6689;53.400;12.486;2023-03-01T11:13:54;12.27;;;7.18;;
13244;SDS011;6689;53.400;12.486;2023-03-01T11:16:34;8.30;;;6.30;;
13244;SDS011;6689;53.400;12.486;2023-03-01T11:19:15;10.05;;;6.88;;
13244;SDS011;6689;53.400;12.486;2023-03-01T11:21:52;10.20;;;6.70;;
13244;SDS011;6689;53.400;12.486;2023-03-01T11:24:25;9.30;;;7.45;;
13244;SDS011;6689;53.400;12.486;2023-03-01T11:26:56;13.15;;;7.25;;
13244;SDS011;6689;53.400;12.486;2023-03-01T11:29:32;11.30;;;7.55;;
13244;SDS011;6689;53.400;12.486;2023-03-01T11:32:05;10.50;;;7.05;;
13244;SDS011;6689;53.400;12.486;2023-03-01T11:34:37;11.30;;;7.78;;
13244;SDS011;6689;53.400;12.486;2023-03-01T11:37:11;11.13;;;7.82;;
13244;SDS011;6689;53.400;12.486;2023-03-01T11:39:45;9.50;;;7.22;;
13244;SDS011;6689;53.400;12.486;2023-03-01T11:42:17;17.65;;;8.20;;
13244;SDS011;6689;53.400;12.486;2023-03-01T11:44:50;11.27;;;7.85;;
13244;SDS011;6689;53.400;12.486;2023-03-01T11:47:25;14.27;;;7.82;;
13244;SDS011;6689;53.400;12.486;2023-03-01T11:50:08;13.15;;;8.82;;
13244;SDS011;6689;53.400;12.486;2023-03-01T11:52:49;10.20;;;8.30;;
13244;SDS011;6689;53.400;12.486;2023-03-01T11:55:26;13.32;;;8.77;;
13244;SDS011;6689;53.400;12.486;2023-03-01T11:58:09;13.50;;;8.65;;
13244;SDS011;6689;53.400;12.486;2023-03-01T12:00:55;12.25;;;8.63;;
13244;SDS011;6689;53.400;12.486;2023-03-01T12:03:41;11.15;;;8.48;;
13244;SDS011;6689;53.400;12.486;2023-03-01T12:06:21;12.20;;;9.50;;
13244;SDS011;6689;53.400;12.486;2023-03-01T12:09:17;11.65;;;9.15;;
13244;SDS011;6689;53.400;12.486;2023-03-01T12:12:14;12.13;;;9.23;;
13244;SDS011;6689;53.400;12.486;2023-03-01T12:15:15;14.70;;;10.60;;
13244;SDS011;6689;53.400;12.486;2023-03-01T12:18:06;13.60;;;9.40;;
13244;SDS011;6689;53.400;12.486;2023-03-01T12:20:55;12.98;;;10.15;;
13244;SDS011;6689;53.400;12.486;2023-03-01T12:23:38;16.75;;;10.32;;
13244;SDS011;6689;53.400;12.486;2023-03-01T12:26:17;13.75;;;10.10;;
13244;SDS011;6689;53.400;12.486;2023-03-01T12:28:55;13.77;;;9.07;;
13244;SDS011;6689;53.400;12.486;2023-03-01T12:38:01;14.90;;;10.35;;
13244;SDS011;6689;53.400;12.486;2023-03-01T12:40:43;16.80;;;11.40;;
13244;SDS011;6689;53.400;12.486;2023-03-01T12:43:26;14.98;;;10.80;;
13244;SDS011;6689;53.400;12.486;2023-03-01T12:46:14;14.40;;;10.55;;
13244;SDS011;6689;53.400;12.486;2023-03-01T12:48:52;17.45;;;11.98;;
13244;SDS011;6689;53.400;12.486;2023-03-01T12:51:29;17.35;;;12.73;;
13244;SDS011;6689;53.400;12.486;2023-03-01T12:54:01;20.08;;;13.30;;
13244;SDS011;6689;53.400;12.486;2023-03-01T12:56:40;13.15;;;11.30;;
13244;SDS011;6689;53.400;12.486;2023-03-01T12:59:11;16.65;;;11.93;;
13244;SDS011;6689;53.400;12.486;2023-03-01T13:01:43;15.40;;;11.60;;
13244;SDS011;6689;53.400;12.486;2023-03-01T13:04:22;21.80;;;12.65;;
13244;SDS011;6689;53.400;12.486;2023-03-01T13:09:34;17.02;;;12.73;;
13244;SDS011;6689;53.400;12.486;2023-03-01T13:15:27;18.02;;;13.88;;
13244;SDS011;6689;53.400;12.486;2023-03-01T13:17:58;19.17;;;14.35;;
13244;SDS011;6689;53.400;12.486;2023-03-01T13:20:29;17.88;;;14.85;;
13244;SDS011;6689;53.400;12.486;2023-03-01T13:28:49;21.15;;;15.50;;
13244;SDS011;6689;53.400;12.486;2023-03-01T13:34:42;19.58;;;15.13;;
13244;SDS011;6689;53.400;12.486;2023-03-01T13:37:26;19.35;;;14.57;;
13244;SDS011;6689;53.400;12.486;2023-03-01T13:40:08;20.85;;;15.65;;
13244;SDS011;6689;53.400;12.486;2023-03-01T13:43:31;23.73;;;15.35;;
13244;SDS011;6689;53.400;12.486;2023-03-01T13:46:01;19.30;;;15.52;;
13244;SDS011;6689;53.400;12.486;2023-03-01T13:48:33;20.48;;;15.52;;
13244;SDS011;6689;53.400;12.486;2023-03-01T13:51:02;21.85;;;14.98;;
13244;SDS011;6689;53.400;12.486;2023-03-01T13:53:33;22.50;;;16.50;;
13244;SDS011;6689;53.400;12.486;2023-03-01T13:56:07;23.05;;;16.58;;
13244;SDS011;6689;53.400;12.486;2023-03-01T13:58:46;20.23;;;15.02;;
13244;SDS011;6689;53.400;12.486;2023-03-01T14:01:20;20.70;;;15.40;;
13244;SDS011;6689;53.400;12.486;2023-03-01T14:03:54;19.88;;;15.48;;
13244;SDS011;6689;53.400;12.486;2023-03-01T14:06:23;18.70;;;14.57;;
13244;SDS011;6689;53.400;12.486;2023-03-01T14:08:52;19.45;;;15.73;;
13244;SDS011;6689;53.400;12.486;2023-03-01T14:11:35;23.55;;;16.55;;
13244;SDS011;6689;53.400;12.486;2023-03-01T14:20:08;20.13;;;15.32;;
13244;SDS011;6689;53.400;12.486;2023-03-01T14:22:41;20.05;;;17.00;;
13244;SDS011;6689;53.400;12.486;2023-03-01T14:25:19;24.00;;;17.92;;
13244;SDS011;6689;53.400;12.486;2023-03-01T14:27:59;20.27;;;15.65;;
13244;SDS011;6689;53.400;12.486;2023-03-01T14:30:34;22.73;;;15.13;;
13244;SDS011;6689;53.400;12.486;2023-03-01T14:33:05;19.52;;;15.98;;
13244;SDS011;6689;53.400;12.486;2023-03-01T14:35:51;16.42;;;13.38;;
13244;SDS011;6689;53.400;12.486;2023-03-01T14:38:23;20.88;;;15.68;;
13244;SDS011;6689;53.400;12.486;2023-03-01T14:43:23;20.27;;;14.60;;
13244;SDS011;6689;53.400;12.486;2023-03-01T14:45:53;18.98;;;14.27;;
13244;SDS011;6689;53.400;12.486;2023-03-01T14:48:20;24.42;;;15.13;;
13244;SDS011;6689;53.400;12.486;2023-03-01T14:50:48;18.48;;;14.25;;
13244;SDS011;6689;53.400;12.486;2023-03-01T14:53:16;20.23;;;15.95;;
13244;SDS011;6689;53.400;12.486;2023-03-01T14:55:46;16.58;;;14.35;;
13244;SDS011;6689;53.400;12.486;2023-03-01T14:58:19;20.65;;;14.30;;
13244;SDS011;6689;53.400;12.486;2023-03-01T15:00:49;16.70;;;14.00;;
13244;SDS011;6689;53.400;12.486;2023-03-01T15:03:23;19.52;;;15.65;;
13244;SDS011;6689;53.400;12.486;2023-03-01T15:05:54;18.95;;;14.07;;
13244;SDS011;6689;53.400;12.486;2023-03-01T15:08:23;18.58;;;13.02;;
13244;SDS011;6689;53.400;12.486;2023-03-01T15:11:02;19.60;;;14.27;;
13244;SDS011;6689;53.400;12.486;2023-03-01T15:13:31;19.38;;;13.73;;
13244;SDS011;6689;53.400;12.486;2023-03-01T15:16:06;20.63;;;14.45;;
13244;SDS011;6689;53.400;12.486;2023-03-01T15:18:37;22.83;;;14.13;;
13244;SDS011;6689;53.400;12.486;2023-03-01T15:21:14;18.10;;;14.50;;
13244;SDS011;6689;53.400;12.486;2023-03-01T15:23:47;21.38;;;14.57;;
13244;SDS011;6689;53.400;12.486;2023-03-01T15:26:21;18.52;;;14.40;;
13244;SDS011;6689;53.400;12.486;2023-03-01T15:28:52;21.02;;;14.80;;
13244;SDS011;6689;53.400;12.486;2023-03-01T15:31:23;21.85;;;14.18;;
13244;SDS011;6689;53.400;12.486;2023-03-01T15:33:58;19.52;;;13.60;;
13244;SDS011;6689;53.400;12.486;2023-03-01T15:36:39;19.50;;;14.73;;
13244;SDS011;6689;53.400;12.486;2023-03-01T15:42:08;19.05;;;15.20;;
13244;SDS011;6689;53.400;12.486;2023-03-01T15:44:37;21.23;;;14.85;;
13244;SDS011;6689;53.400;12.486;2023-03-01T15:47:23;21.25;;;14.45;;